Time;durP1;ratioP1;P1;durP2;ratioP2;P2;SDS_P1;SDS_P2;PMS_P1;PMS_P2;Temp;Humidity;BMP_temperature;BMP_pressure;BME280_temperature;BME280_humidity;BME280_pressure;Samples;Min_cycle;Max_cycle;Signal;HPM_P1;HPM_P2
2022/08/09 00:01:36;;;;;;;9.48;6.57;;;14.80;99.90;;;;;;4984989;28;20065;-83
2022/08/09 00:04:03;;;;;;;7.78;6.97;;;14.70;99.90;;;;;;4968183;28;20038;-84
2022/08/09 00:06:29;;;;;;;12.35;7.50;;;14.70;99.90;;;;;;5014296;28;20092;-82
2022/08/09 00:08:55;;;;;;;9.30;7.45;;;14.70;99.90;;;;;;4998177;28;20065;-82
2022/08/09 00:11:21;;;;;;;8.68;6.72;;;14.60;99.90;;;;;;4981300;28;20410;-83
2022/08/09 00:13:49;;;;;;;7.82;7.03;;;14.60;99.90;;;;;;4965747;28;20782;-83
2022/08/09 00:16:16;;;;;;;7.90;7.10;;;14.60;99.90;;;;;;4966489;28;20061;-82
2022/08/09 00:18:43;;;;;;;8.52;7.32;;;14.50;99.90;;;;;;4967643;28;20050;-82
2022/08/09 00:21:09;;;;;;;9.70;7.60;;;14.50;99.90;;;;;;4981756;28;20084;-83
2022/08/09 00:23:36;;;;;;;10.23;7.53;;;14.50;99.90;;;;;;4964934;28;20095;-83
2022/08/09 00:26:03;;;;;;;9.07;7.35;;;14.50;99.90;;;;;;4971117;28;20129;-84
2022/08/09 00:28:30;;;;;;;9.77;8.38;;;14.50;99.90;;;;;;4986327;28;20546;-83
2022/08/09 00:30:57;;;;;;;12.63;7.68;;;14.50;99.90;;;;;;4979193;28;20509;-84
2022/08/09 00:33:23;;;;;;;9.75;7.40;;;14.50;99.90;;;;;;4996669;28;20533;-83
2022/08/09 00:35:49;;;;;;;12.05;8.70;;;14.40;99.90;;;;;;4996994;28;20065;-83
2022/08/09 00:38:15;;;;;;;10.50;7.78;;;14.30;99.90;;;;;;4981338;28;20053;-83
2022/08/09 00:40:42;;;;;;;8.32;7.53;;;14.30;99.90;;;;;;4931412;28;20042;-84
2022/08/09 00:43:08;;;;;;;8.40;7.38;;;14.30;99.90;;;;;;4982302;28;20550;-83
2022/08/09 00:45:35;;;;;;;13.45;8.52;;;14.20;99.90;;;;;;4946755;28;20837;-83
2022/08/09 00:48:02;;;;;;;9.32;7.63;;;14.30;99.90;;;;;;4946892;28;20053;-84
2022/08/09 00:50:28;;;;;;;8.80;7.90;;;14.20;99.90;;;;;;4984497;28;20068;-83
2022/08/09 00:52:54;;;;;;;9.40;7.65;;;14.30;99.90;;;;;;4963452;28;20072;-83
2022/08/09 00:55:20;;;;;;;7.93;6.63;;;14.20;99.90;;;;;;4949652;28;20042;-83
2022/08/09 00:57:46;;;;;;;10.07;7.18;;;14.20;99.90;;;;;;4982635;28;20678;-81
2022/08/09 01:00:13;;;;;;;9.15;7.25;;;14.10;99.90;;;;;;4969351;28;20046;-82
2022/08/09 01:02:56;;;;;;;9.60;7.32;;;14.10;99.90;;;;;;4968837;28;20108;-83
2022/08/09 01:05:47;;;;;;;8.18;7.13;;;14.10;99.90;;;;;;4965471;28;20054;-82
2022/08/09 01:08:20;;;;;;;8.82;7.20;;;14.10;99.90;;;;;;4965203;28;20046;-82
2022/08/09 01:11:05;;;;;;;10.55;8.15;;;14.10;99.90;;;;;;4978117;28;20584;-82
2022/08/09 01:13:50;;;;;;;9.05;7.10;;;14.00;99.90;;;;;;4991348;28;20047;-83
2022/08/09 01:16:20;;;;;;;9.40;7.28;;;14.10;99.90;;;;;;4993750;28;20042;-83
2022/08/09 01:18:49;;;;;;;9.80;7.53;;;14.00;99.90;;;;;;4974415;28;20494;-83
2022/08/09 01:21:28;;;;;;;9.77;7.60;;;14.00;99.90;;;;;;4993375;28;20124;-82
2022/08/09 01:24:22;;;;;;;10.40;8.15;;;14.00;99.90;;;;;;4978365;28;20403;-82
2022/08/09 01:27:01;;;;;;;8.90;8.00;;;14.00;99.90;;;;;;4963878;28;20052;-82
2022/08/09 01:29:41;;;;;;;9.57;7.85;;;13.90;99.90;;;;;;4990172;28;20060;-83
2022/08/09 01:32:10;;;;;;;10.88;7.65;;;13.90;99.90;;;;;;4993073;28;20051;-83
2022/08/09 01:34:37;;;;;;;8.95;8.05;;;13.80;99.90;;;;;;4957418;28;20046;-83
2022/08/09 01:37:07;;;;;;;12.10;8.20;;;13.80;99.90;;;;;;4949706;28;20586;-83
2022/08/09 01:39:36;;;;;;;8.88;7.95;;;13.80;99.90;;;;;;4947976;28;20110;-83
2022/08/09 01:42:04;;;;;;;8.98;7.93;;;13.70;99.90;;;;;;4981140;28;20054;-83
2022/08/09 01:44:31;;;;;;;10.43;8.30;;;13.80;99.90;;;;;;4944389;28;20046;-83
2022/08/09 01:47:00;;;;;;;10.32;8.35;;;13.70;99.90;;;;;;4962436;28;20061;-83
2022/08/09 01:49:29;;;;;;;11.30;7.80;;;13.70;99.90;;;;;;4995857;28;20061;-83
2022/08/09 01:52:02;;;;;;;8.65;7.80;;;13.70;99.90;;;;;;4996349;28;20057;-83
2022/08/09 01:54:31;;;;;;;9.25;7.25;;;13.70;99.90;;;;;;4985634;28;20558;-83
2022/08/09 01:57:00;;;;;;;9.98;7.50;;;13.70;99.90;;;;;;4934707;28;20040;-83
2022/08/09 01:59:28;;;;;;;10.07;8.82;;;13.70;99.90;;;;;;4995003;28;20149;-83
2022/08/09 02:01:55;;;;;;;11.35;8.45;;;13.70;99.90;;;;;;4933743;28;20748;-83
2022/08/09 02:04:23;;;;;;;10.45;9.32;;;13.60;99.90;;;;;;4979782;28;20070;-83
2022/08/09 02:07:07;;;;;;;9.65;8.75;;;13.70;99.90;;;;;;4964343;28;20085;-83
2022/08/09 02:09:37;;;;;;;11.60;9.77;;;13.70;99.90;;;;;;5002694;28;20066;-83
2022/08/09 02:12:07;;;;;;;10.07;9.00;;;13.60;99.90;;;;;;4931868;28;20053;-83
2022/08/09 02:14:36;;;;;;;11.63;9.73;;;13.60;99.90;;;;;;4977723;28;20090;-82
2022/08/09 02:17:03;;;;;;;11.85;10.15;;;13.70;99.90;;;;;;4979260;28;20046;-82
2022/08/09 02:19:29;;;;;;;13.18;9.65;;;13.60;99.90;;;;;;4930144;28;20058;-82
2022/08/09 02:22:01;;;;;;;9.80;8.82;;;13.70;99.90;;;;;;4950540;28;20069;-82
2022/08/09 02:24:34;;;;;;;11.98;10.10;;;13.60;99.90;;;;;;4992008;28;20042;-83
2022/08/09 02:27:04;;;;;;;9.85;8.70;;;13.60;99.90;;;;;;4977302;28;20046;-82
2022/08/09 02:29:36;;;;;;;10.35;8.88;;;13.60;99.90;;;;;;4980270;28;20056;-82
2022/08/09 02:32:03;;;;;;;;;;;13.60;99.90;;;;;;4963351;28;20046;-82
2022/08/09 02:34:40;;;;;;;12.07;9.32;;;13.60;99.90;;;;;;4964320;28;19956;-83
2022/08/09 02:37:15;;;;;;;12.13;9.55;;;13.50;99.90;;;;;;4994808;28;20108;-84
2022/08/09 02:39:48;;;;;;;12.82;8.95;;;13.50;99.90;;;;;;4962412;28;20056;-83
2022/08/09 02:42:20;;;;;;;11.43;10.02;;;13.50;99.90;;;;;;4961511;28;20046;-83
2022/08/09 02:45:04;;;;;;;9.57;8.68;;;13.50;99.90;;;;;;4992028;28;20517;-83
2022/08/09 02:47:32;;;;;;;11.55;9.55;;;13.50;99.90;;;;;;4996505;28;20050;-84
2022/08/09 02:50:10;;;;;;;11.63;9.07;;;13.40;99.90;;;;;;4981256;28;20454;-84
2022/08/09 02:52:48;;;;;;;10.10;9.20;;;13.40;99.90;;;;;;4961496;28;20054;-83
2022/08/09 02:55:16;;;;;;;11.57;9.35;;;13.40;99.90;;;;;;4995054;28;20073;-83
2022/08/09 02:57:44;;;;;;;10.27;8.98;;;13.40;99.90;;;;;;5012617;28;20046;-82
2022/08/09 03:00:11;;;;;;;11.05;8.77;;;13.30;99.90;;;;;;4980303;28;20085;-83
2022/08/09 03:02:41;;;;;;;10.82;9.68;;;13.30;99.90;;;;;;4961305;28;20038;-83
2022/08/09 03:05:11;;;;;;;11.50;9.85;;;13.40;99.90;;;;;;4978774;28;20042;-83
2022/08/09 03:07:38;;;;;;;12.23;9.98;;;13.40;99.90;;;;;;4980505;28;21308;-82
2022/08/09 03:10:05;;;;;;;13.98;9.63;;;13.30;99.90;;;;;;4978546;28;20078;-83
2022/08/09 03:12:33;;;;;;;13.52;10.65;;;13.30;99.90;;;;;;4980797;28;20046;-83
2022/08/09 03:15:00;;;;;;;12.43;10.68;;;13.30;99.90;;;;;;4944897;28;20049;-84
2022/08/09 03:17:28;;;;;;;14.00;11.50;;;13.30;99.90;;;;;;4962505;28;20701;-83
2022/08/09 03:19:59;;;;;;;14.80;11.32;;;13.30;99.90;;;;;;4963374;28;20073;-83
2022/08/09 03:22:28;;;;;;;12.57;10.25;;;13.30;99.90;;;;;;4979198;28;20046;-83
2022/08/09 03:24:54;;;;;;;12.70;10.98;;;13.30;99.90;;;;;;4944116;28;20680;-83
2022/08/09 03:27:21;;;;;;;13.35;10.75;;;13.30;99.90;;;;;;4961514;28;20713;-83
2022/08/09 03:29:50;;;;;;;14.57;11.25;;;13.30;99.90;;;;;;4948742;28;20046;-84
2022/08/09 03:32:18;;;;;;;13.77;10.52;;;13.30;99.90;;;;;;4950909;28;20050;-83
2022/08/09 03:34:45;;;;;;;13.02;11.18;;;13.30;99.90;;;;;;4946309;28;20222;-83
2022/08/09 03:37:12;;;;;;;12.45;11.02;;;13.30;99.90;;;;;;4964965;28;20478;-83
2022/08/09 03:39:38;;;;;;;15.05;10.95;;;13.20;99.90;;;;;;4949284;28;20046;-84
2022/08/09 03:42:04;;;;;;;12.00;9.80;;;13.20;99.90;;;;;;4998020;28;20053;-83
2022/08/09 03:44:30;;;;;;;14.10;10.40;;;13.20;99.90;;;;;;4985378;28;20110;-83
2022/08/09 03:46:56;;;;;;;12.27;10.48;;;13.20;99.90;;;;;;4973929;28;20105;-82
2022/08/09 03:49:24;;;;;;;12.63;10.15;;;13.20;99.90;;;;;;4983488;28;20219;-82
2022/08/09 03:51:56;;;;;;;12.43;9.90;;;13.20;99.90;;;;;;5012964;28;20046;-83
2022/08/09 03:54:25;;;;;;;12.25;9.57;;;13.10;99.90;;;;;;5010424;28;20069;-80
2022/08/09 03:56:53;;;;;;;11.30;10.10;;;13.10;99.90;;;;;;4995261;28;20078;-83
2022/08/09 03:59:22;;;;;;;10.88;9.70;;;13.10;99.90;;;;;;4987075;28;20046;-83
2022/08/09 04:01:51;;;;;;;13.10;10.57;;;13.10;99.90;;;;;;4986525;28;20081;-83
2022/08/09 04:04:17;;;;;;;12.95;10.02;;;13.10;99.90;;;;;;4982285;28;20132;-83
2022/08/09 04:06:46;;;;;;;11.73;10.52;;;13.10;99.90;;;;;;4933294;28;20056;-82
2022/08/09 04:09:12;;;;;;;13.45;10.02;;;13.10;99.90;;;;;;4960686;28;20059;-83
2022/08/09 04:11:50;;;;;;;11.93;10.20;;;13.10;99.90;;;;;;4928601;28;20074;-84
2022/08/09 04:14:18;;;;;;;12.55;9.95;;;13.10;99.90;;;;;;4928610;28;20046;-84
2022/08/09 04:16:45;;;;;;;11.25;10.07;;;13.10;99.90;;;;;;4960959;28;20039;-83
2022/08/09 04:19:12;;;;;;;14.05;10.25;;;13.10;99.90;;;;;;4961177;28;20054;-84
2022/08/09 04:21:39;;;;;;;11.20;9.98;;;13.10;99.90;;;;;;4959135;28;20082;-84
2022/08/09 04:24:06;;;;;;;12.93;9.57;;;13.10;99.90;;;;;;4959176;28;20060;-84
2022/08/09 04:26:33;;;;;;;13.00;10.15;;;13.10;99.90;;;;;;4952987;28;20050;-84
2022/08/09 04:28:59;;;;;;;12.23;9.55;;;13.10;99.90;;;;;;4972172;28;20062;-84
2022/08/09 04:31:25;;;;;;;11.70;9.40;;;13.10;99.90;;;;;;4995636;28;20201;-83
2022/08/09 04:33:51;;;;;;;12.63;8.93;;;13.20;99.90;;;;;;4911239;28;20131;-84
2022/08/09 04:36:17;;;;;;;11.40;9.90;;;13.20;99.90;;;;;;4976552;28;20431;-83
2022/08/09 04:38:44;;;;;;;10.52;8.48;;;13.20;99.90;;;;;;4961958;28;20104;-84
2022/08/09 04:41:10;;;;;;;12.43;9.15;;;13.20;99.90;;;;;;4941658;28;20582;-83
2022/08/09 04:43:36;;;;;;;13.50;9.48;;;13.20;99.90;;;;;;4946460;28;20074;-83
2022/08/09 04:46:02;;;;;;;10.27;9.10;;;13.20;99.90;;;;;;4953857;28;20130;-84
2022/08/09 04:48:28;;;;;;;12.60;9.48;;;13.30;99.90;;;;;;4906262;28;20055;-83
2022/08/09 04:50:54;;;;;;;10.23;8.73;;;13.30;99.90;;;;;;4943884;28;20047;-84
2022/08/09 04:53:20;;;;;;;12.18;9.48;;;13.30;99.90;;;;;;4927169;28;20046;-85
2022/08/09 04:55:46;;;;;;;11.45;9.15;;;13.40;99.90;;;;;;4978650;28;20050;-83
2022/08/09 04:58:12;;;;;;;11.75;9.25;;;13.40;99.90;;;;;;4933225;28;20094;-82
2022/08/09 05:00:38;;;;;;;10.70;9.60;;;13.50;99.90;;;;;;4964373;28;20612;-82
2022/08/09 05:03:05;;;;;;;11.27;9.98;;;13.50;99.90;;;;;;4976594;28;20278;-80
2022/08/09 05:05:31;;;;;;;14.38;9.82;;;13.60;99.90;;;;;;4949656;28;20689;-83
2022/08/09 05:07:57;;;;;;;10.60;9.40;;;13.60;99.90;;;;;;4981614;28;20051;-82
2022/08/09 05:10:23;;;;;;;13.05;10.43;;;13.70;99.90;;;;;;4968745;28;20526;-81
2022/08/09 05:12:50;;;;;;;12.68;9.73;;;13.70;99.90;;;;;;5005920;28;20042;-82
2022/08/09 05:15:16;;;;;;;10.57;9.25;;;13.80;99.90;;;;;;4981748;28;20061;-82
2022/08/09 05:17:42;;;;;;;10.13;9.05;;;14.10;99.90;;;;;;4971615;28;20515;-82
2022/08/09 05:20:09;;;;;;;10.15;8.52;;;14.50;99.90;;;;;;4956474;28;20057;-82
2022/08/09 05:22:35;;;;;;;10.68;8.68;;;14.80;99.90;;;;;;4998331;28;20050;-81
2022/08/09 05:25:02;;;;;;;8.80;7.30;;;15.10;99.90;;;;;;4942619;28;20049;-82
2022/08/09 05:27:29;;;;;;;9.10;7.32;;;15.30;99.90;;;;;;4956965;28;20047;-75
2022/08/09 05:29:55;;;;;;;9.95;8.40;;;15.50;99.90;;;;;;4978002;28;20057;-77
2022/08/09 05:32:21;;;;;;;9.57;7.60;;;15.60;99.90;;;;;;4982791;28;20065;-81
2022/08/09 05:34:47;;;;;;;9.98;7.68;;;15.80;99.90;;;;;;5002862;28;20634;-81
2022/08/09 05:37:13;;;;;;;8.95;6.90;;;15.90;99.90;;;;;;4953105;28;20129;-80
2022/08/09 05:39:40;;;;;;;7.38;6.65;;;16.00;99.90;;;;;;4950783;28;20052;-79
2022/08/09 05:42:06;;;;;;;8.45;6.75;;;16.10;99.90;;;;;;4982045;28;20057;-80
2022/08/09 05:44:32;;;;;;;8.35;6.47;;;16.20;99.90;;;;;;4950698;28;20185;-80
2022/08/09 05:46:58;;;;;;;7.45;6.38;;;16.30;99.90;;;;;;4967059;28;20439;-79
2022/08/09 05:49:25;;;;;;;8.45;5.93;;;16.30;99.90;;;;;;4998314;28;20061;-82
2022/08/09 05:51:51;;;;;;;6.30;5.70;;;16.40;99.90;;;;;;4966576;28;20080;-80
2022/08/09 05:54:17;;;;;;;6.93;5.65;;;16.60;99.90;;;;;;4970672;28;20042;-80
2022/08/09 05:56:43;;;;;;;7.80;6.15;;;16.80;99.90;;;;;;4966758;28;20042;-81
2022/08/09 05:59:09;;;;;;;8.30;7.18;;;16.80;99.90;;;;;;4983862;28;20053;-81
2022/08/09 06:01:35;;;;;;;6.85;5.53;;;17.00;99.90;;;;;;4986451;28;20046;-81
2022/08/09 06:04:01;;;;;;;6.68;5.80;;;17.00;99.90;;;;;;4947381;28;20050;-81
2022/08/09 06:06:28;;;;;;;8.30;5.45;;;17.00;99.90;;;;;;4964232;28;20050;-80
2022/08/09 06:08:54;;;;;;;6.15;5.40;;;17.20;99.90;;;;;;4992417;28;20049;-81
2022/08/09 06:11:20;;;;;;;11.20;10.02;;;17.40;99.90;;;;;;4983351;28;20081;-80
2022/08/09 06:13:46;;;;;;;11.75;10.35;;;17.50;99.90;;;;;;4985691;28;20104;-80
2022/08/09 06:16:12;;;;;;;6.68;5.68;;;17.60;99.90;;;;;;4981538;28;20041;-80
2022/08/09 06:18:39;;;;;;;8.00;4.97;;;17.80;99.90;;;;;;4950692;28;20078;-81
2022/08/09 06:21:05;;;;;;;9.90;5.32;;;17.90;99.90;;;;;;4981389;28;20053;-81
2022/08/09 06:23:32;;;;;;;5.70;4.88;;;18.00;99.90;;;;;;5000484;28;20057;-81
2022/08/09 06:25:58;;;;;;;6.30;5.13;;;18.10;99.90;;;;;;4966912;28;20042;-79
2022/08/09 06:28:24;;;;;;;7.85;5.38;;;18.30;99.90;;;;;;5002871;28;20084;-81
2022/08/09 06:30:50;;;;;;;13.48;11.20;;;18.30;99.90;;;;;;4986996;28;20547;-81
2022/08/09 06:33:16;;;;;;;5.75;4.50;;;18.60;99.90;;;;;;4967087;28;20042;-81
2022/08/09 06:35:42;;;;;;;9.55;5.20;;;18.80;99.90;;;;;;4971470;28;20073;-82
2022/08/09 06:38:09;;;;;;;10.20;6.93;;;18.90;99.90;;;;;;4968481;28;20069;-82
2022/08/09 06:40:35;;;;;;;8.27;5.82;;;19.10;99.90;;;;;;4951967;28;20105;-81
2022/08/09 06:43:01;;;;;;;15.55;13.98;;;19.20;99.90;;;;;;4941473;28;20061;-81
2022/08/09 06:45:27;;;;;;;6.65;4.85;;;19.50;99.90;;;;;;4995269;28;20092;-82
2022/08/09 06:47:53;;;;;;;5.07;3.88;;;19.50;99.90;;;;;;4983684;28;20103;-80
2022/08/09 06:50:19;;;;;;;6.05;3.53;;;19.60;99.90;;;;;;4966013;28;20057;-80
2022/08/09 06:52:46;;;;;;;4.13;3.17;;;19.80;99.90;;;;;;5004286;28;20053;-79
2022/08/09 06:55:18;;;;;;;6.47;3.65;;;20.10;99.90;;;;;;4995212;28;20112;-80
2022/08/09 06:57:45;;;;;;;6.05;3.08;;;20.30;99.90;;;;;;4968861;28;20088;-81
2022/08/09 07:00:11;;;;;;;7.28;5.35;;;20.40;99.90;;;;;;4952064;28;20096;-80
2022/08/09 07:02:38;;;;;;;8.23;4.15;;;20.30;99.90;;;;;;4968243;28;20078;-80
2022/08/09 07:05:05;;;;;;;9.02;5.63;;;20.40;99.90;;;;;;4984724;28;20050;-80
2022/08/09 07:07:32;;;;;;;22.08;19.77;;;20.70;99.90;;;;;;4980206;28;20050;-79
2022/08/09 07:09:58;;;;;;;5.13;2.72;;;20.90;99.90;;;;;;4977692;28;20050;-79
2022/08/09 07:12:24;;;;;;;5.35;3.40;;;21.10;99.90;;;;;;4998295;28;20704;-79
2022/08/09 07:14:50;;;;;;;7.93;4.75;;;21.40;99.90;;;;;;4967628;28;20046;-78
2022/08/09 07:17:16;;;;;;;8.88;6.90;;;21.50;99.90;;;;;;4980507;28;20478;-75
2022/08/09 07:19:42;;;;;;;6.57;4.75;;;21.60;99.90;;;;;;4982278;28;20427;-79
2022/08/09 07:22:08;;;;;;;5.35;2.22;;;21.90;99.90;;;;;;4985438;28;20056;-82
2022/08/09 07:24:34;;;;;;;10.63;6.53;;;22.30;99.90;;;;;;4997546;28;20053;-79
2022/08/09 07:27:01;;;;;;;11.57;9.52;;;22.70;99.90;;;;;;4976996;28;20060;-79
2022/08/09 07:29:28;;;;;;;4.57;1.48;;;22.80;99.90;;;;;;4965886;28;20720;-81
2022/08/09 07:31:54;;;;;;;9.65;7.15;;;23.00;99.90;;;;;;4966873;28;20080;-77
2022/08/09 07:34:21;;;;;;;4.45;1.70;;;23.40;99.90;;;;;;5004807;28;20596;-79
2022/08/09 07:36:50;;;;;;;5.45;3.13;;;23.50;99.90;;;;;;4999325;28;20742;-80
2022/08/09 07:39:17;;;;;;;4.63;2.60;;;23.60;99.90;;;;;;4931921;28;20763;-79
2022/08/09 07:41:43;;;;;;;7.57;4.97;;;24.00;99.90;;;;;;4952627;28;20129;-79
2022/08/09 07:44:09;;;;;;;4.45;2.70;;;24.00;99.90;;;;;;4951785;28;20056;-80
2022/08/09 07:46:35;;;;;;;4.60;3.17;;;24.20;99.90;;;;;;4967980;28;20049;-79
2022/08/09 07:49:01;;;;;;;6.00;3.20;;;24.30;99.90;;;;;;4977943;28;20045;-79
2022/08/09 07:51:27;;;;;;;19.75;17.90;;;24.50;99.90;;;;;;4967958;28;20050;-76
2022/08/09 07:53:53;;;;;;;22.13;19.92;;;24.60;99.90;;;;;;4951053;28;20042;-80
2022/08/09 07:56:19;;;;;;;6.03;4.32;;;24.20;99.90;;;;;;4987753;28;20046;-80
2022/08/09 07:58:46;;;;;;;7.05;4.53;;;24.00;99.90;;;;;;4981214;28;20045;-80
2022/08/09 08:01:13;;;;;;;16.35;14.73;;;24.30;99.90;;;;;;4990701;28;20050;-80
2022/08/09 08:03:39;;;;;;;12.07;9.25;;;24.30;99.90;;;;;;4990588;28;20050;-81
2022/08/09 08:06:06;;;;;;;7.32;5.00;;;24.40;99.90;;;;;;4957025;28;20502;-80
2022/08/09 08:08:32;;;;;;;5.90;2.90;;;24.30;99.90;;;;;;4985043;28;20052;-79
2022/08/09 08:10:58;;;;;;;2.75;1.15;;;24.20;99.90;;;;;;4977414;28;20061;-80
2022/08/09 08:13:24;;;;;;;3.85;2.28;;;23.50;99.90;;;;;;4992530;28;20078;-80
2022/08/09 08:15:50;;;;;;;7.60;4.70;;;23.40;99.90;;;;;;4970407;28;20039;-81
2022/08/09 08:18:16;;;;;;;8.45;6.25;;;23.10;99.90;;;;;;4979986;28;20038;-80
2022/08/09 08:20:42;;;;;;;5.50;3.38;;;23.50;99.90;;;;;;4979596;28;20112;-80
2022/08/09 08:23:09;;;;;;;6.20;3.28;;;23.50;99.90;;;;;;4966431;28;20052;-80
2022/08/09 08:25:35;;;;;;;3.15;1.27;;;24.10;99.90;;;;;;4981948;28;20054;-79
2022/08/09 08:28:01;;;;;;;11.45;9.02;;;24.60;99.90;;;;;;4966942;28;20069;-79
2022/08/09 08:30:27;;;;;;;3.17;1.75;;;25.00;99.90;;;;;;4980359;28;20051;-80
2022/08/09 08:32:53;;;;;;;10.40;9.27;;;24.80;99.90;;;;;;4965402;28;20053;-79
2022/08/09 08:35:20;;;;;;;6.43;4.82;;;24.80;99.90;;;;;;4968947;28;20058;-79
2022/08/09 08:37:46;;;;;;;2.60;1.30;;;24.80;99.90;;;;;;4984798;28;20148;-80
2022/08/09 08:40:13;;;;;;;4.78;1.58;;;25.10;99.90;;;;;;4999245;28;20073;-80
2022/08/09 08:42:41;;;;;;;9.07;5.50;;;25.60;99.90;;;;;;4966864;28;20629;-80
2022/08/09 08:45:09;;;;;;;5.25;1.05;;;26.00;99.90;;;;;;4985609;28;20050;-81
2022/08/09 08:47:35;;;;;;;1.98;1.42;;;26.20;99.90;;;;;;4952524;28;20525;-80
2022/08/09 08:50:02;;;;;;;3.17;0.80;;;26.70;99.90;;;;;;4950104;28;20545;-80
2022/08/09 08:52:29;;;;;;;3.78;1.85;;;26.70;98.80;;;;;;4936909;28;20050;-80
2022/08/09 08:54:57;;;;;;;3.28;2.40;;;27.10;97.10;;;;;;4996874;28;20545;-81
2022/08/09 08:57:25;;;;;;;6.15;4.30;;;27.60;97.40;;;;;;5012747;28;20042;-77
2022/08/09 08:59:52;;;;;;;3.30;1.17;;;27.30;96.30;;;;;;4992849;28;20572;-76
2022/08/09 09:02:29;;;;;;;5.47;4.97;;;26.70;96.20;;;;;;4982534;28;20558;-80
2022/08/09 09:04:58;;;;;;;4.53;4.00;;;26.30;96.80;;;;;;4964269;28;20077;-80
2022/08/09 09:07:26;;;;;;;6.40;4.97;;;25.90;97.50;;;;;;4964989;28;20411;-80
2022/08/09 09:09:54;;;;;;;5.40;4.28;;;25.60;98.10;;;;;;4966492;28;20060;-81
2022/08/09 09:12:25;;;;;;;6.38;3.40;;;25.50;98.80;;;;;;4982746;28;20042;-80
2022/08/09 09:14:52;;;;;;;2.60;1.55;;;25.30;98.70;;;;;;4999435;28;20081;-79
2022/08/09 09:17:19;;;;;;;8.32;7.40;;;25.70;98.30;;;;;;4964118;28;20049;-79
2022/08/09 09:19:45;;;;;;;3.47;1.88;;;25.80;98.40;;;;;;4979045;28;20046;-80
2022/08/09 09:22:14;;;;;;;3.47;2.60;;;25.80;97.90;;;;;;4982393;28;20157;-81
2022/08/09 09:24:43;;;;;;;3.03;1.40;;;25.50;97.60;;;;;;4946634;28;20578;-76
2022/08/09 09:27:11;;;;;;;2.70;1.35;;;25.10;98.00;;;;;;4947362;28;20050;-80
2022/08/09 09:29:40;;;;;;;4.38;2.65;;;25.10;98.10;;;;;;4993791;28;20047;-80
2022/08/09 09:32:07;;;;;;;6.90;5.53;;;25.90;97.10;;;;;;4976409;28;20049;-80
2022/08/09 09:34:35;;;;;;;2.95;2.13;;;25.50;96.80;;;;;;4946116;28;20040;-80
2022/08/09 09:37:03;;;;;;;6.57;5.25;;;25.30;96.90;;;;;;4967835;28;20041;-80
2022/08/09 09:39:30;;;;;;;10.25;9.30;;;25.20;97.30;;;;;;4948590;28;20053;-80
2022/08/09 09:41:58;;;;;;;1.92;0.75;;;25.00;97.70;;;;;;4994662;28;20046;-80
2022/08/09 09:44:31;;;;;;;5.47;4.82;;;25.40;97.60;;;;;;4949399;28;20117;-79
2022/08/09 09:47:12;;;;;;;5.43;4.90;;;26.40;96.00;;;;;;4967925;28;20060;-80
2022/08/09 09:49:41;;;;;;;5.13;2.90;;;27.10;93.40;;;;;;4999359;28;20058;-80
2022/08/09 09:52:09;;;;;;;3.88;1.52;;;27.30;89.70;;;;;;4978808;28;20074;-80
2022/08/09 09:54:46;;;;;;;2.22;1.13;;;27.40;85.30;;;;;;4966239;28;20046;-80
2022/08/09 09:57:19;;;;;;;5.15;4.40;;;28.10;77.20;;;;;;4963903;28;20491;-80
2022/08/09 09:59:47;;;;;;;3.97;3.33;;;28.60;72.90;;;;;;4978444;28;20043;-78
2022/08/09 10:02:14;;;;;;;2.50;1.52;;;28.20;72.80;;;;;;4981824;28;20116;-78
2022/08/09 10:04:41;;;;;;;2.10;0.50;;;28.20;76.60;;;;;;4950012;28;20057;-78
2022/08/09 10:07:27;;;;;;;3.70;2.67;;;28.20;72.70;;;;;;4933601;28;20046;-79
2022/08/09 10:09:55;;;;;;;1.60;0.98;;;28.50;69.70;;;;;;4998954;28;20145;-78
2022/08/09 10:12:25;;;;;;;2.17;1.98;;;28.30;70.10;;;;;;4948793;28;20659;-79
2022/08/09 10:14:51;;;;;;;1.20;0.70;;;28.80;68.00;;;;;;4995336;28;20074;-80
2022/08/09 10:17:19;;;;;;;2.28;2.03;;;29.00;67.70;;;;;;4947416;28;20126;-79
2022/08/09 10:19:46;;;;;;;2.42;0.98;;;29.20;65.70;;;;;;4980498;28;20038;-81
2022/08/09 10:22:12;;;;;;;3.78;2.05;;;29.50;63.00;;;;;;4960369;28;20141;-78
2022/08/09 10:24:39;;;;;;;1.52;0.82;;;29.20;63.40;;;;;;4975532;28;20043;-77
2022/08/09 10:27:07;;;;;;;2.92;2.47;;;28.90;62.50;;;;;;4993950;28;20115;-80
2022/08/09 10:29:34;;;;;;;2.85;1.58;;;29.20;62.50;;;;;;4979797;28;20130;-80
2022/08/09 10:32:01;;;;;;;6.05;4.85;;;29.60;63.40;;;;;;4994649;28;20537;-78
2022/08/09 10:34:27;;;;;;;21.92;19.90;;;29.80;63.20;;;;;;4945562;28;20044;-78
2022/08/09 10:36:55;;;;;;;6.47;5.72;;;29.90;63.00;;;;;;4960871;28;20068;-78
2022/08/09 10:39:23;;;;;;;15.75;14.20;;;30.00;60.80;;;;;;4979592;28;20038;-78
2022/08/09 10:41:50;;;;;;;2.50;2.25;;;30.00;60.40;;;;;;4979631;28;20422;-78
2022/08/09 10:44:21;;;;;;;5.78;4.57;;;30.40;59.60;;;;;;4948277;28;20450;-78
2022/08/09 10:46:58;;;;;;;1.42;1.10;;;30.20;58.00;;;;;;4963011;28;20046;-78
2022/08/09 10:49:36;;;;;;;2.40;1.08;;;30.40;58.30;;;;;;4966474;28;20093;-78
2022/08/09 10:52:17;;;;;;;1.17;0.88;;;30.30;58.20;;;;;;4961498;28;20046;-78
2022/08/09 10:54:43;;;;;;;;;;;30.30;57.80;;;;;;4989149;28;20045;-78
2022/08/09 10:57:14;;;;;;;0.55;0.55;;;30.10;56.60;;;;;;4979857;28;20037;-78
2022/08/09 10:59:41;;;;;;;2.28;1.10;;;30.60;58.40;;;;;;4979362;28;20046;-80
2022/08/09 11:02:14;;;;;;;0.95;0.65;;;30.40;57.60;;;;;;4970411;28;20066;-80
2022/08/09 11:04:41;;;;;;;2.63;1.10;;;30.50;55.90;;;;;;4965067;28;20050;-78
2022/08/09 11:07:08;;;;;;;47.80;44.10;;;30.30;56.00;;;;;;4977187;28;20124;-78
2022/08/09 11:09:37;;;;;;;8.75;7.95;;;30.10;55.70;;;;;;4981029;28;20058;-78
2022/08/09 11:12:23;;;;;;;1.58;0.65;;;30.20;56.30;;;;;;4961542;28;20054;-78
2022/08/09 11:14:53;;;;;;;0.98;0.60;;;30.00;56.50;;;;;;4947497;28;20491;-78
2022/08/09 11:17:19;;;;;;;;;;;29.80;56.90;;;;;;4948121;28;20078;-77
2022/08/09 11:19:56;;;;;;;1.60;0.70;;;30.00;55.80;;;;;;4977027;28;19921;-77
2022/08/09 11:22:47;;;;;;;1.02;0.50;;;30.20;54.80;;;;;;4979612;28;20597;-77
2022/08/09 11:25:14;;;;;;;0.90;0.65;;;30.40;54.20;;;;;;4961922;28;20660;-75
2022/08/09 11:27:43;;;;;;;1.17;0.50;;;30.40;55.00;;;;;;4949542;28;20390;-77
2022/08/09 11:30:14;;;;;;;1.98;0.65;;;30.80;55.10;;;;;;4975228;28;20058;-76
2022/08/09 11:32:49;;;;;;;2.10;1.25;;;30.90;53.30;;;;;;4947040;28;20047;-75
2022/08/09 11:35:19;;;;;;;25.25;23.10;;;31.00;52.60;;;;;;4962638;28;20073;-75
2022/08/09 11:37:47;;;;;;;3.53;2.78;;;30.90;53.20;;;;;;4997364;28;20101;-74
2022/08/09 11:40:16;;;;;;;4.28;2.35;;;31.10;53.00;;;;;;4946812;28;20046;-74
2022/08/09 11:42:47;;;;;;;2.80;1.73;;;31.00;52.90;;;;;;4990443;28;20046;-75
2022/08/09 11:45:43;;;;;;;1.63;0.60;;;30.80;53.60;;;;;;4998867;28;20700;-75
2022/08/09 11:48:23;;;;;;;1.45;0.65;;;30.80;52.90;;;;;;4994950;28;20056;-74
2022/08/09 11:51:07;;;;;;;2.10;0.68;;;31.10;52.80;;;;;;4978590;28;20050;-74
2022/08/09 11:53:38;;;;;;;1.95;0.60;;;31.20;52.40;;;;;;4997088;28;20148;-75
2022/08/09 11:56:13;;;;;;;2.22;0.95;;;30.90;53.00;;;;;;4961773;28;20072;-75
2022/08/09 11:58:53;;;;;;;2.90;0.93;;;30.70;51.90;;;;;;4996976;28;20081;-75
2022/08/09 12:01:41;;;;;;;2.40;1.30;;;30.90;52.30;;;;;;4996248;28;20092;-75
2022/08/09 12:04:15;;;;;;;1.52;0.90;;;30.90;52.10;;;;;;4946925;28;20105;-75
2022/08/09 12:06:53;;;;;;;0.90;0.50;;;31.10;52.60;;;;;;4980801;28;20077;-78
2022/08/09 12:09:26;;;;;;;0.65;0.50;;;31.00;53.20;;;;;;4993994;28;20066;-78
2022/08/09 12:12:04;;;;;;;1.73;0.70;;;31.10;52.20;;;;;;4980566;28;20057;-78
2022/08/09 12:14:36;;;;;;;2.63;0.40;;;31.20;51.70;;;;;;4983469;28;20050;-78
2022/08/09 12:17:06;;;;;;;1.42;0.50;;;31.00;52.30;;;;;;4989966;28;20041;-78
2022/08/09 12:19:34;;;;;;;1.20;0.40;;;31.20;51.80;;;;;;4985138;28;20042;-77
2022/08/09 12:22:03;;;;;;;0.40;0.40;;;31.20;51.60;;;;;;4974928;28;20190;-75
2022/08/09 12:24:29;;;;;;;1.55;0.50;;;31.40;51.70;;;;;;4999238;28;20517;-75
2022/08/09 12:26:58;;;;;;;2.53;1.50;;;30.90;51.00;;;;;;4947789;28;20085;-78
2022/08/09 12:29:27;;;;;;;2.15;1.30;;;30.30;51.40;;;;;;4973561;28;20103;-73
2022/08/09 12:32:04;;;;;;;1.23;0.90;;;30.70;51.70;;;;;;5002223;28;20054;-73
2022/08/09 12:34:36;;;;;;;1.90;1.20;;;30.80;51.80;;;;;;4984624;28;20049;-74
2022/08/09 12:37:04;;;;;;;8.45;7.65;;;30.80;52.10;;;;;;4964475;28;20046;-73
2022/08/09 12:39:30;;;;;;;2.17;0.90;;;31.20;51.50;;;;;;4952154;28;20050;-74
2022/08/09 12:42:26;;;;;;;2.00;1.48;;;31.10;51.50;;;;;;4965481;28;20060;-73
2022/08/09 12:44:52;;;;;;;2.53;1.40;;;31.10;50.40;;;;;;4948719;28;20049;-73
2022/08/09 12:47:19;;;;;;;3.10;1.33;;;31.30;50.80;;;;;;4990253;28;20694;-74
2022/08/09 12:50:15;;;;;;;0.85;0.55;;;31.60;50.70;;;;;;4971322;28;20105;-74
2022/08/09 12:52:44;;;;;;;1.60;1.02;;;31.60;50.00;;;;;;5004458;28;20060;-73